Furacão ELSA 2021: trajetória, intensidade e histórico
10/07/2021, 06:00:00
30/06/2021, 18:00:00 – 10/07/2021, 06:00:00
Trajetória histórica
Acompanhe a evolução e o deslocamento de Furacão ELSA em 2021, com a trajetória completa registrada, ventos máximos sustentados de 75 nós, pressão central mínima e cronologia detalhada.
| Data | Hora | Tipo | Ventokm/h | PressãohPa |
|---|---|---|---|---|
| 10/07 | 06:00 | EXCiclone extratropical | 65 | 999 |
| 10/07 | 03:00 | EXCiclone extratropical | 70 | 998 |
| 10/07 | 00:00 | EXCiclone extratropical | 75 | 997 |
| 09/07 | 21:00 | EXCiclone extratropical | 80 | 998 |
| 09/07 | 18:00 | EXCiclone extratropical | 85 | 999 |
| 09/07 | 16:30 | TSTempestade tropical | 95 | 999 |
| 09/07 | 15:00 | TSTempestade tropical | 95 | 999 |
| 09/07 | 12:00 | TSTempestade tropical | 95 | 999 |
| 09/07 | 09:00 | TSTempestade tropical | 95 | 1000 |
| 09/07 | 06:00 | TSTempestade tropical | 95 | 1001 |
| 09/07 | 03:00 | TSTempestade tropical | 90 | 1002 |
| 09/07 | 00:00 | TSTempestade tropical | 85 | 1003 |
| 08/07 | 21:00 | TSTempestade tropical | 85 | 1004 |
| 08/07 | 18:00 | TSTempestade tropical | 85 | 1004 |
| 08/07 | 15:00 | TSTempestade tropical | 80 | 1005 |
| 08/07 | 12:00 | TSTempestade tropical | 75 | 1006 |
| 08/07 | 09:00 | TSTempestade tropical | 75 | 1006 |
| 08/07 | 06:00 | TSTempestade tropical | 75 | 1006 |
| 08/07 | 03:00 | TSTempestade tropical | 80 | 1006 |
| 08/07 | 00:00 | TSTempestade tropical | 85 | 1005 |
| 07/07 | 21:00 | TSTempestade tropical | 85 | 1004 |
| 07/07 | 18:00 | TSTempestade tropical | 85 | 1002 |
| 07/07 | 15:00 | TSTempestade tropical | 100 | 1000 |
| 07/07 | 14:30 | TSTempestade tropical | 100 | 1000 |
| 07/07 | 12:00 | TSTempestade tropical | 100 | 999 |
| 07/07 | 09:00 | TSTempestade tropical | 100 | 999 |
| 07/07 | 06:00 | TSTempestade tropical | 100 | 998 |
| 07/07 | 03:00 | TSTempestade tropical | 110 | 997 |
| 07/07 | 00:00 | HFuracão | 120 | 996 |
| 06/07 | 21:00 | TSTempestade tropical | 115 | 997 |
| 06/07 | 18:00 | TSTempestade tropical | 110 | 997 |
| 06/07 | 15:00 | TSTempestade tropical | 105 | 1000 |
| 06/07 | 12:00 | TSTempestade tropical | 100 | 1003 |
| 06/07 | 09:00 | TSTempestade tropical | 100 | 1004 |
| 06/07 | 06:00 | TSTempestade tropical | 95 | 1005 |
| 06/07 | 03:00 | TSTempestade tropical | 95 | 1005 |
| 06/07 | 00:00 | TSTempestade tropical | 95 | 1005 |
| 05/07 | 21:00 | TSTempestade tropical | 100 | 1005 |
| 05/07 | 18:30 | TSTempestade tropical | 100 | 1005 |
| 05/07 | 18:00 | TSTempestade tropical | 100 | 1005 |
| 05/07 | 15:00 | TSTempestade tropical | 100 | 1005 |
| 05/07 | 12:00 | TSTempestade tropical | 100 | 1005 |
| 05/07 | 09:00 | TSTempestade tropical | 100 | 1005 |
| 05/07 | 06:00 | TSTempestade tropical | 100 | 1005 |
| 05/07 | 03:00 | TSTempestade tropical | 100 | 1005 |
| 05/07 | 00:00 | TSTempestade tropical | 100 | 1005 |
| 04/07 | 21:00 | TSTempestade tropical | 100 | 1006 |
| 04/07 | 18:00 | TSTempestade tropical | 95 | 1007 |
| 04/07 | 15:00 | TSTempestade tropical | 95 | 1007 |
| 04/07 | 12:00 | TSTempestade tropical | 95 | 1007 |
| 04/07 | 09:00 | TSTempestade tropical | 100 | 1007 |
| 04/07 | 06:00 | TSTempestade tropical | 100 | 1006 |
| 04/07 | 03:00 | TSTempestade tropical | 100 | 1005 |
| 04/07 | 00:00 | TSTempestade tropical | 100 | 1004 |
| 03/07 | 21:00 | TSTempestade tropical | 105 | 1003 |
| 03/07 | 18:00 | TSTempestade tropical | 110 | 1002 |
| 03/07 | 15:00 | TSTempestade tropical | 110 | 1001 |
| 03/07 | 12:00 | TSTempestade tropical | 110 | 1000 |
| 03/07 | 09:00 | TSTempestade tropical | 115 | 999 |
| 03/07 | 06:00 | HFuracão | 120 | 998 |
| 03/07 | 03:00 | HFuracão | 125 | 997 |
| 03/07 | 00:00 | HFuracão | 130 | 995 |
| 02/07 | 21:00 | HFuracão | 135 | 993 |
| 02/07 | 18:00 | HFuracão | 140 | 991 |
| 02/07 | 15:00 | HFuracão | 130 | 993 |
| 02/07 | 12:00 | HFuracão | 120 | 995 |
| 02/07 | 09:00 | TSTempestade tropical | 110 | 998 |
| 02/07 | 06:00 | TSTempestade tropical | 100 | 1000 |
| 02/07 | 03:00 | TSTempestade tropical | 100 | 1001 |
| 02/07 | 00:00 | TSTempestade tropical | 95 | 1002 |
| 01/07 | 21:00 | TSTempestade tropical | 90 | 1003 |
| 01/07 | 18:00 | TSTempestade tropical | 85 | 1004 |
| 01/07 | 15:00 | TSTempestade tropical | 80 | 1005 |
| 01/07 | 12:00 | TSTempestade tropical | 75 | 1005 |
| 01/07 | 09:00 | TSTempestade tropical | 70 | 1006 |
| 01/07 | 06:00 | TSTempestade tropical | 65 | 1006 |
| 01/07 | 03:00 | TSTempestade tropical | 65 | 1007 |
| 01/07 | 00:00 | TSTempestade tropical | 65 | 1007 |
| 30/06 | 21:00 | TDDepressão tropical | 60 | 1008 |
| 30/06 | 18:00 | TDDepressão tropical | 55 | 1008 |
Cronologia de localização
80 Registos de localizaçãoDesastres naturais próximos
Detalhes do evento
Ligações das fontes
Também pode encontrar estas ferramentas úteis
A localização, a extensão e o estado de cada evento podem ser atualizados em momentos diferentes consoante a fonte. Confirme decisões importantes junto das autoridades oficiais de emergência.
Os registos de eventos provêm da NASA EONET e são complementados por registos de deslizamentos de terra do USGS FDSN. As análises e previsões de tempestades podem utilizar a NOAA NHC ou o JTWC, com registos históricos ATCF da UCAR/NCAR quando disponíveis. As imagens de satélite provêm da NASA Worldview/GIBS (GOES e Himawari) ou da EUMETSAT Meteosat, consoante a cobertura do mapa.
Fontes: NASA EONET · USGS · NOAA NHC · JTWC · UCAR/NCAR ATCF · NASA Worldview/GIBS · EUMETSAT Meteosat · OpenStreetMap contributors